Time;durP1;ratioP1;P1;durP2;ratioP2;P2;SDS_P1;SDS_P2;PMS_P1;PMS_P2;Temp;Humidity;BMP_temperature;BMP_pressure;BME280_temperature;BME280_humidity;BME280_pressure;Samples;Min_cycle;Max_cycle;Signal;HPM_P1;HPM_P2
2022/09/30 00:01:17;;;;;;;12.13;8.95;;;;;;;8.31;nan;100609.63;5032041;28;20037;-55
2022/09/30 00:03:42;;;;;;;10.90;8.88;;;;;;;7.87;nan;100555.72;5032326;28;20072;-57
2022/09/30 00:06:08;;;;;;;10.13;8.90;;;;;;;8.51;nan;100624.81;5032400;28;20048;-53
2022/09/30 00:08:35;;;;;;;15.40;9.77;;;;;;;8.51;nan;100629.19;5030756;28;20112;-53
2022/09/30 00:11:06;;;;;;;10.50;8.93;;;;;;;8.45;nan;100615.34;5032106;28;20472;-58
2022/09/30 00:13:34;;;;;;;11.00;9.52;;;;;;;8.87;nan;100678.88;5032324;28;20053;-55
2022/09/30 00:16:00;;;;;;;10.52;9.30;;;;;;;8.85;nan;100664.97;5032126;28;20542;-52
2022/09/30 00:18:27;;;;;;;11.23;8.90;;;;;;;8.63;nan;100623.63;5031910;28;20141;-51
2022/09/30 00:20:52;;;;;;;9.95;8.95;;;;;;;8.80;nan;100684.38;5030882;28;20025;-52
2022/09/30 00:23:19;;;;;;;10.10;9.05;;;;;;;8.63;nan;100629.72;5031806;28;20026;-52
2022/09/30 00:25:44;;;;;;;12.32;8.90;;;;;;;8.57;nan;100623.78;5033462;28;20033;-59
2022/09/30 00:28:09;;;;;;;12.30;8.80;;;;;;;8.56;nan;100620.28;5034708;28;20033;-55
2022/09/30 00:30:35;;;;;;;9.57;8.57;;;;;;;8.80;nan;100655.50;5035898;28;20033;-56
2022/09/30 00:33:00;;;;;;;10.90;8.48;;;;;;;8.73;nan;100649.56;5036031;28;20091;-51
2022/09/30 00:35:25;;;;;;;12.88;9.13;;;;;;;8.72;nan;100653.09;5035740;28;20325;-54
2022/09/30 00:37:51;;;;;;;10.48;8.82;;;;;;;8.47;nan;100621.41;5035690;28;20041;-52
2022/09/30 00:40:18;;;;;;;12.18;8.52;;;;;;;8.74;nan;100680.16;5035810;28;20107;-56
2022/09/30 00:42:45;;;;;;;9.20;8.27;;;;;;;8.64;nan;100673.41;5034532;28;20033;-53
2022/09/30 00:45:12;;;;;;;10.52;8.95;;;;;;;8.58;nan;100672.75;5035634;28;20033;-58
2022/09/30 00:47:52;;;;;;;12.43;9.27;;;;;;;8.47;nan;100667.75;5034454;28;20091;-54
2022/09/30 00:50:28;;;;;;;11.43;9.55;;;;;;;7.99;nan;100599.09;5035441;28;20044;-51
2022/09/30 00:53:01;;;;;;;10.63;8.57;;;;;;;8.32;nan;100684.75;5035740;28;20033;-51
2022/09/30 00:55:32;;;;;;;12.35;8.23;;;;;;;8.25;nan;100679.69;5035335;28;20074;-52
2022/09/30 00:57:59;;;;;;;11.15;8.50;;;;;;;6.95;nan;100455.88;5035450;28;20059;-53
2022/09/30 01:00:24;;;;;;;10.25;8.27;;;;;;;8.10;nan;100657.34;5017602;28;20392;-53
2022/09/30 01:02:49;;;;;;;10.57;8.80;;;;;;;7.96;nan;100645.47;5035103;28;20037;-54
2022/09/30 01:05:15;;;;;;;10.63;8.27;;;;;;;7.70;nan;100612.06;5035432;28;20248;-55
2022/09/30 01:07:41;;;;;;;10.15;8.65;;;;;;;7.97;nan;100661.16;5035065;28;20037;-54
2022/09/30 01:10:06;;;;;;;10.30;8.52;;;;;;;7.86;nan;100664.03;5033556;28;20040;-54
2022/09/30 01:12:32;;;;;;;10.70;8.00;;;;;;;7.86;nan;100666.66;5035234;28;20112;-52
2022/09/30 01:14:58;;;;;;;11.38;8.80;;;;;;;7.83;nan;100666.72;5050680;28;20037;-55
2022/09/30 01:17:48;;;;;;;13.38;8.93;;;;;;;7.78;nan;100671.22;5035034;28;20064;-54
2022/09/30 01:20:44;;;;;;;9.85;8.10;;;;;;;7.72;nan;100678.38;5035307;28;20042;-53
2022/09/30 01:23:44;;;;;;;10.05;8.10;;;;;;;7.65;nan;100680.25;5034850;28;20381;-51
2022/09/30 01:26:18;;;;;;;10.73;8.35;;;;;;;7.58;nan;100683.94;5015218;28;20429;-54
2022/09/30 01:29:01;;;;;;;9.60;8.35;;;;;;;7.54;nan;100689.25;5034944;28;20040;-52
2022/09/30 01:31:35;;;;;;;13.20;8.98;;;;;;;7.40;nan;100666.00;5033644;28;20032;-55
2022/09/30 01:34:23;;;;;;;11.35;8.73;;;;;;;7.47;nan;100685.06;5034748;28;20071;-57
2022/09/30 01:36:58;;;;;;;11.68;8.52;;;;;;;7.42;nan;100679.03;5034454;28;20469;-58
2022/09/30 01:39:42;;;;;;;10.60;8.38;;;;;;;7.37;nan;100687.00;5033400;28;20370;-53
2022/09/30 01:42:16;;;;;;;12.05;8.38;;;;;;;6.97;nan;100621.56;5034567;28;20112;-53
2022/09/30 01:44:47;;;;;;;11.65;8.43;;;;;;;7.31;nan;100685.41;5034429;28;20072;-57
2022/09/30 01:47:17;;;;;;;;;;;;;;;7.28;nan;100689.81;5034969;28;20072;-55
2022/09/30 01:50:12;;;;;;;9.45;8.20;;;;;;;6.79;nan;100617.59;5033356;28;20055;-57
2022/09/30 01:52:42;;;;;;;10.52;8.50;;;;;;;7.09;nan;100670.19;5034479;28;20038;-53
2022/09/30 01:55:13;;;;;;;11.93;8.43;;;;;;;7.08;nan;100674.56;5034327;28;20025;-55
2022/09/30 01:57:56;;;;;;;10.55;8.60;;;;;;;7.09;nan;100667.56;5033313;28;20025;-54
2022/09/30 02:00:21;;;;;;;11.13;8.15;;;;;;;6.76;nan;100616.78;5034376;28;20507;-57
2022/09/30 02:02:52;;;;;;;11.10;9.20;;;;;;;7.05;nan;100674.59;5034268;28;20057;-55
2022/09/30 02:05:23;;;;;;;14.32;9.07;;;;;;;7.04;nan;100670.25;5034015;28;20370;-52
2022/09/30 02:08:02;;;;;;;10.60;9.35;;;;;;;7.03;nan;100663.31;5034056;28;20041;-53
2022/09/30 02:10:34;;;;;;;10.98;9.07;;;;;;;6.58;nan;100588.38;5033379;28;20040;-53
2022/09/30 02:13:14;;;;;;;11.98;9.43;;;;;;;6.75;nan;100622.91;5032932;28;20033;-50
2022/09/30 02:15:43;;;;;;;12.20;8.88;;;;;;;6.99;nan;100658.16;5032998;28;20041;-56
2022/09/30 02:18:25;;;;;;;11.32;8.15;;;;;;;6.99;nan;100672.13;5032166;28;20136;-55
2022/09/30 02:20:56;;;;;;;11.90;9.27;;;;;;;6.96;nan;100677.41;5032804;28;20164;-54
2022/09/30 02:23:25;;;;;;;10.40;9.35;;;;;;;6.62;nan;100632.75;5033856;28;20392;-55
2022/09/30 02:25:58;;;;;;;11.73;9.43;;;;;;;6.58;nan;100631.09;5032483;28;20036;-57
2022/09/30 02:28:26;;;;;;;11.70;9.95;;;;;;;6.93;nan;100694.91;5032466;28;20037;-56
2022/09/30 02:30:55;;;;;;;13.65;9.27;;;;;;;6.94;nan;100696.66;5033744;28;20554;-52
2022/09/30 02:33:49;;;;;;;12.68;10.02;;;;;;;6.93;nan;100690.56;5033712;28;20061;-57
2022/09/30 02:36:23;;;;;;;11.50;9.65;;;;;;;6.80;nan;100681.22;5033049;28;20485;-52
2022/09/30 02:38:56;;;;;;;12.82;9.80;;;;;;;6.86;nan;100691.56;5033329;28;20415;-52
2022/09/30 02:41:25;;;;;;;12.20;10.18;;;;;;;6.57;nan;100644.16;5015845;28;20429;-54
2022/09/30 02:43:51;;;;;;;13.05;10.85;;;;;;;6.82;nan;100691.66;5032409;28;20394;-55
2022/09/30 02:46:22;;;;;;;12.25;10.35;;;;;;;6.84;nan;100703.81;5032275;28;20037;-53
2022/09/30 02:48:51;;;;;;;14.18;11.10;;;;;;;6.81;nan;100698.63;5032652;28;20060;-53
2022/09/30 02:51:16;;;;;;;14.38;10.68;;;;;;;6.78;nan;100696.06;5033150;28;20511;-55
2022/09/30 02:53:44;;;;;;;12.40;9.75;;;;;;;6.77;nan;100713.53;5033407;28;20038;-53
2022/09/30 02:56:31;;;;;;;13.32;10.68;;;;;;;6.74;nan;100695.25;5033291;28;20132;-57
2022/09/30 02:58:57;;;;;;;12.07;10.02;;;;;;;6.39;nan;100645.38;5031246;28;20068;-56
2022/09/30 03:01:23;;;;;;;13.27;10.70;;;;;;;6.68;nan;100694.53;5031923;28;20065;-56
2022/09/30 03:04:05;;;;;;;13.95;11.20;;;;;;;6.23;nan;100625.66;5031610;28;20033;-52
2022/09/30 03:06:31;;;;;;;17.25;11.32;;;;;;;6.59;nan;100698.19;5031745;28;20033;-55
2022/09/30 03:08:56;;;;;;;14.18;11.23;;;;;;;6.55;nan;100698.25;5048308;28;20538;-54
2022/09/30 03:11:23;;;;;;;14.98;11.15;;;;;;;6.36;nan;100652.44;5048355;28;20029;-58
2022/09/30 03:14:10;;;;;;;15.05;11.52;;;;;;;6.47;nan;100668.78;5031768;28;20037;-59
2022/09/30 03:16:54;;;;;;;17.90;12.88;;;;;;;6.64;nan;100717.28;5033009;28;20050;-54
2022/09/30 03:19:25;;;;;;;17.17;12.20;;;;;;;6.64;nan;100711.19;5032958;28;20064;-54
2022/09/30 03:22:06;;;;;;;18.77;13.32;;;;;;;6.64;nan;100708.56;5032874;28;20048;-54
2022/09/30 03:24:53;;;;;;;14.15;12.73;;;;;;;6.64;nan;100705.94;5047853;28;20034;-53
2022/09/30 03:27:41;;;;;;;15.90;12.07;;;;;;;6.44;nan;100681.91;5032693;28;20045;-59
2022/09/30 03:30:11;;;;;;;16.40;12.07;;;;;;;6.63;nan;100717.28;5032573;28;20118;-58
2022/09/30 03:32:42;;;;;;;17.40;13.07;;;;;;;6.63;nan;100736.47;5031420;28;20037;-58
2022/09/30 03:35:26;;;;;;;;;;;;;;;6.61;nan;100725.16;5032966;28;20167;-56
2022/09/30 03:38:25;;;;;;;18.15;12.68;;;;;;;6.59;nan;100728.72;5032618;28;20391;-56
2022/09/30 03:41:07;;;;;;;16.95;12.52;;;;;;;6.57;nan;100740.94;5032922;28;20124;-54
2022/09/30 03:43:45;;;;;;;20.98;13.48;;;;;;;6.55;nan;100738.34;5032619;28;20033;-58
2022/09/30 03:46:20;;;;;;;17.00;12.98;;;;;;;6.20;nan;100672.75;5032511;28;20107;-60
2022/09/30 03:48:48;;;;;;;21.50;14.95;;;;;;;6.42;nan;100715.91;5047750;28;20473;-55
2022/09/30 03:51:14;;;;;;;19.02;14.82;;;;;;;6.48;nan;100721.03;5048056;28;20040;-54
2022/09/30 03:53:40;;;;;;;18.98;15.13;;;;;;;6.35;nan;100709.09;5032183;28;20116;-56
2022/09/30 03:56:05;;;;;;;18.60;15.20;;;;;;;6.48;nan;100736.72;5047627;28;20366;-59
2022/09/30 03:58:31;;;;;;;20.58;14.13;;;;;;;6.41;nan;100726.41;5030832;28;20044;-55
2022/09/30 04:00:57;;;;;;;18.25;15.00;;;;;;;6.44;nan;100731.59;5047605;28;20022;-59
2022/09/30 04:03:23;;;;;;;19.08;14.82;;;;;;;6.43;nan;100740.31;5032539;28;20042;-60
2022/09/30 04:05:48;;;;;;;19.15;14.25;;;;;;;6.39;nan;100729.03;5032504;28;20037;-56
2022/09/30 04:08:14;;;;;;;20.17;15.55;;;;;;;6.41;nan;100729.03;5030890;28;20042;-58
2022/09/30 04:10:40;;;;;;;18.45;14.57;;;;;;;6.30;nan;100718.75;5032307;28;20114;-56
2022/09/30 04:13:07;;;;;;;20.08;14.27;;;;;;;5.96;nan;100668.78;5032352;28;20131;-53
2022/09/30 04:15:32;;;;;;;20.88;15.20;;;;;;;6.27;nan;100739.72;5047341;28;20037;-58
2022/09/30 04:17:58;;;;;;;24.00;15.00;;;;;;;6.33;nan;100757.06;5047187;28;20052;-58
2022/09/30 04:20:24;;;;;;;18.83;14.75;;;;;;;6.34;nan;100759.63;5032100;28;20096;-60
2022/09/30 04:22:49;;;;;;;18.90;14.40;;;;;;;6.28;nan;100751.88;5030846;28;20037;-53
2022/09/30 04:25:15;;;;;;;20.65;15.40;;;;;;;6.38;nan;100755.22;5031494;28;20049;-62
2022/09/30 04:27:40;;;;;;;22.02;16.70;;;;;;;6.31;nan;100746.59;5032153;28;20389;-54
2022/09/30 04:30:05;;;;;;;20.98;16.08;;;;;;;6.40;nan;100758.66;5031822;28;20026;-54
2022/09/30 04:32:31;;;;;;;22.63;16.58;;;;;;;6.26;nan;100751.06;5031993;28;20041;-55
2022/09/30 04:34:56;;;;;;;22.88;17.30;;;;;;;6.29;nan;100740.56;5047176;28;20044;-57
2022/09/30 04:37:22;;;;;;;24.25;17.13;;;;;;;6.23;nan;100723.22;5031767;28;20034;-55
2022/09/30 04:39:48;;;;;;;25.75;17.33;;;;;;;5.99;nan;100681.81;5032189;28;20050;-52
2022/09/30 04:42:13;;;;;;;25.25;18.30;;;;;;;5.99;nan;100679.19;5031813;28;20094;-57
2022/09/30 04:44:38;;;;;;;24.25;17.42;;;;;;;6.35;nan;100742.19;5031909;28;20082;-54
2022/09/30 04:47:05;;;;;;;25.40;18.17;;;;;;;6.45;nan;100759.47;5031867;28;20116;-58
2022/09/30 04:49:31;;;;;;;26.52;19.27;;;;;;;6.02;nan;100689.59;5031752;28;20041;-57
2022/09/30 04:51:56;;;;;;;27.75;18.63;;;;;;;6.42;nan;100742.06;5031674;28;20070;-53
2022/09/30 04:54:22;;;;;;;26.13;19.38;;;;;;;6.52;nan;100761.06;5031677;28;20500;-53
2022/09/30 04:56:47;;;;;;;26.92;19.90;;;;;;;6.52;nan;100775.03;5031702;28;20034;-57
2022/09/30 04:59:12;;;;;;;33.53;20.65;;;;;;;6.13;nan;100708.56;5031563;28;20041;-57
2022/09/30 05:01:39;;;;;;;29.92;20.35;;;;;;;6.50;nan;100775.94;5031697;28;20120;-57
2022/09/30 05:04:04;;;;;;;29.05;19.90;;;;;;;6.49;nan;100774.19;5030282;28;20040;-52
2022/09/30 05:06:29;;;;;;;28.35;20.00;;;;;;;6.09;nan;100713.88;5046607;28;20124;-60
2022/09/30 05:08:55;;;;;;;26.10;18.98;;;;;;;6.18;nan;100730.28;5031424;28;20435;-57
2022/09/30 05:11:21;;;;;;;30.38;20.60;;;;;;;6.48;nan;100782.97;5032108;28;20032;-55
2022/09/30 05:13:47;;;;;;;31.17;20.55;;;;;;;6.10;nan;100716.44;5034035;28;20033;-56
2022/09/30 05:16:13;;;;;;;33.72;23.00;;;;;;;6.45;nan;100788.22;5035179;28;20034;-52
2022/09/30 05:18:41;;;;;;;29.98;20.60;;;;;;;6.47;nan;100781.22;5034885;28;20064;-56
2022/09/30 05:21:06;;;;;;;32.80;22.08;;;;;;;6.44;nan;100776.91;5034816;28;20152;-56
2022/09/30 05:23:32;;;;;;;32.78;22.63;;;;;;;6.04;nan;100700.88;5050306;28;20489;-57
2022/09/30 05:25:59;;;;;;;33.63;21.83;;;;;;;6.44;nan;100779.53;5034921;28;20037;-56
2022/09/30 05:28:24;;;;;;;32.20;22.27;;;;;;;6.36;nan;100764.84;5034685;28;20041;-55
2022/09/30 05:30:56;;;;;;;34.50;23.17;;;;;;;6.15;nan;100724.25;5033081;28;20035;-55
2022/09/30 05:33:22;;;;;;;34.80;23.80;;;;;;;6.48;nan;100773.34;5034926;28;20033;-56
2022/09/30 05:35:47;;;;;;;35.67;22.83;;;;;;;6.55;nan;100781.94;5034467;28;20519;-52
2022/09/30 05:38:12;;;;;;;35.15;23.73;;;;;;;6.58;nan;100788.00;5049813;28;20492;-53
2022/09/30 05:40:38;;;;;;;37.80;25.67;;;;;;;6.58;nan;100779.28;5034593;28;20029;-60
2022/09/30 05:43:04;;;;;;;34.85;24.75;;;;;;;6.61;nan;100789.69;5034362;28;20040;-52
2022/09/30 05:45:29;;;;;;;41.38;25.50;;;;;;;6.52;nan;100772.41;5049579;28;20112;-58
2022/09/30 05:47:55;;;;;;;37.22;24.60;;;;;;;6.62;nan;100796.66;5033074;28;20042;-51
2022/09/30 05:50:22;;;;;;;38.63;27.35;;;;;;;6.21;nan;100701.50;5034091;28;20033;-56
2022/09/30 05:52:48;;;;;;;39.20;25.60;;;;;;;6.73;nan;100789.47;5034057;28;20041;-56
2022/09/30 05:55:15;;;;;;;38.33;26.67;;;;;;;6.63;nan;100751.28;5034053;28;20070;-58
2022/09/30 05:57:40;;;;;;;42.05;27.23;;;;;;;6.79;nan;100792.88;5034199;28;20144;-54
2022/09/30 06:00:06;;;;;;;39.83;27.48;;;;;;;6.63;nan;100752.16;5034298;28;20494;-53
2022/09/30 06:02:32;;;;;;;37.05;26.90;;;;;;;6.58;nan;100740.91;5049423;28;20040;-59
2022/09/30 06:04:57;;;;;;;45.03;27.58;;;;;;;6.69;nan;100738.09;5049364;28;20129;-54
2022/09/30 06:07:23;;;;;;;41.25;27.38;;;;;;;7.07;nan;100795.81;5034129;28;20116;-56
2022/09/30 06:09:48;;;;;;;43.15;29.55;;;;;;;7.08;nan;100776.63;5034523;28;20033;-56
2022/09/30 06:12:14;;;;;;;40.17;26.75;;;;;;;7.27;nan;100791.06;5034095;28;20038;-56
2022/09/30 06:14:39;;;;;;;44.85;28.08;;;;;;;7.38;nan;100799.56;5034068;28;20038;-54
2022/09/30 06:17:05;;;;;;;42.42;30.83;;;;;;;7.55;nan;100794.00;5033655;28;20404;-53
2022/09/30 06:19:31;;;;;;;46.72;29.90;;;;;;;7.72;nan;100781.41;5033443;28;20037;-55
2022/09/30 06:21:57;;;;;;;47.03;33.05;;;;;;;7.93;nan;100782.69;5033002;28;20163;-51
2022/09/30 06:24:22;;;;;;;46.60;33.58;;;;;;;7.88;nan;100717.25;5033628;28;20044;-55
2022/09/30 06:26:48;;;;;;;47.67;32.45;;;;;;;8.46;nan;100761.31;5049068;28;20033;-57
2022/09/30 06:29:13;;;;;;;43.42;31.23;;;;;;;8.75;nan;100763.22;5033714;28;20087;-60
2022/09/30 06:31:38;;;;;;;43.13;31.52;;;;;;;8.84;nan;100744.59;5033589;28;20377;-56
2022/09/30 06:34:04;;;;;;;43.22;31.00;;;;;;;9.32;nan;100804.56;5048608;28;20507;-57
2022/09/30 06:36:32;;;;;;;36.22;27.70;;;;;;;9.41;nan;100804.31;5048569;28;20072;-59
2022/09/30 06:39:00;;;;;;;37.30;28.23;;;;;;;9.43;nan;100808.59;5033544;28;20124;-52
2022/09/30 06:41:26;;;;;;;34.90;25.08;;;;;;;9.32;nan;100781.78;5033440;28;20030;-57
2022/09/30 06:43:52;;;;;;;36.90;27.50;;;;;;;9.35;nan;100773.81;5033504;28;20069;-56
2022/09/30 06:46:18;;;;;;;36.45;26.38;;;;;;;9.58;nan;100804.69;5033445;28;20033;-51
2022/09/30 06:48:43;;;;;;;33.17;25.60;;;;;;;9.71;nan;100816.59;5033532;28;20064;-51
2022/09/30 06:51:11;;;;;;;35.95;26.42;;;;;;;9.74;nan;100794.59;5033397;28;20030;-56
2022/09/30 06:53:38;;;;;;;31.67;23.85;;;;;;;9.86;nan;100815.28;5048415;28;20033;-56
2022/09/30 06:56:04;;;;;;;29.33;22.17;;;;;;;9.80;nan;100786.53;5048472;28;20531;-57
2022/09/30 06:58:29;;;;;;;26.25;21.33;;;;;;;9.65;nan;100750.19;5033209;28;20041;-57
2022/09/30 07:01:00;;;;;;;26.02;21.48;;;;;;;9.66;nan;100741.41;5033166;28;20068;-56
2022/09/30 07:03:28;;;;;;;24.40;20.50;;;;;;;10.06;nan;100818.16;5032913;28;20029;-49
2022/09/30 07:06:04;;;;;;;25.88;19.40;;;;;;;10.12;nan;100804.81;5031250;28;20120;-57
2022/09/30 07:08:30;;;;;;;29.40;19.20;;;;;;;9.91;nan;100771.28;5031787;28;20033;-56
2022/09/30 07:11:15;;;;;;;24.88;19.15;;;;;;;10.13;nan;100809.19;5032438;28;20099;-59
2022/09/30 07:13:44;;;;;;;24.58;19.42;;;;;;;10.12;nan;100797.78;5032535;28;20029;-56
2022/09/30 07:16:11;;;;;;;24.30;20.25;;;;;;;10.01;nan;100778.84;5031663;28;20033;-56
2022/09/30 07:18:36;;;;;;;24.10;18.85;;;;;;;10.13;nan;100789.00;5031143;28;20050;-57
2022/09/30 07:21:02;;;;;;;26.33;19.90;;;;;;;9.93;nan;100738.78;5032544;28;20053;-58
2022/09/30 07:23:28;;;;;;;22.20;17.83;;;;;;;10.03;nan;100734.97;5031572;28;20123;-54
2022/09/30 07:25:56;;;;;;;21.00;18.55;;;;;;;10.17;nan;100731.91;5032811;28;20041;-60
2022/09/30 07:28:30;;;;;;;22.05;16.83;;;;;;;10.69;nan;100784.53;5014499;28;20052;-57
2022/09/30 07:30:57;;;;;;;18.50;16.30;;;;;;;10.89;nan;100772.47;5031617;28;20037;-58
2022/09/30 07:33:24;;;;;;;16.48;14.70;;;;;;;11.04;nan;100764.03;5031686;28;20068;-56
2022/09/30 07:35:54;;;;;;;15.20;13.60;;;;;;;11.37;nan;100777.78;5032246;28;20048;-56
2022/09/30 07:38:20;;;;;;;15.05;12.77;;;;;;;11.48;nan;100780.88;5046292;28;20041;-55
2022/09/30 07:40:57;;;;;;;14.45;12.50;;;;;;;11.71;nan;100776.50;5030035;28;20033;-57
2022/09/30 07:43:23;;;;;;;14.75;12.23;;;;;;;11.79;nan;100766.50;5031144;28;20450;-56
2022/09/30 07:45:50;;;;;;;15.20;11.73;;;;;;;11.85;nan;100766.28;5031365;28;20029;-57
2022/09/30 07:51:00;;;;;;;12.18;10.93;;;;;;;11.90;nan;100718.63;5030377;28;20047;-56
2022/09/30 07:53:25;;;;;;;13.05;11.30;;;;;;;12.30;nan;100765.38;5031469;28;20033;-58
2022/09/30 07:55:50;;;;;;;12.40;9.93;;;;;;;12.41;nan;100752.59;5031298;28;20128;-58
2022/09/30 07:58:16;;;;;;;9.95;8.98;;;;;;;12.64;nan;100773.63;5031539;28;20120;-56
2022/09/30 08:00:41;;;;;;;10.38;8.80;;;;;;;12.12;nan;100692.22;5030041;28;20045;-53
2022/09/30 08:03:07;;;;;;;9.55;8.48;;;;;;;13.05;nan;100771.03;5029981;28;20029;-56
2022/09/30 08:05:38;;;;;;;9.15;7.93;;;;;;;13.17;nan;100762.56;5030383;28;20045;-57
2022/09/30 08:08:05;;;;;;;7.80;7.10;;;;;;;-142.64;100.00;58178.75;5030080;28;20033;-57
2022/09/30 08:10:33;;;;;;;8.10;7.32;;;;;;;-142.64;100.00;58178.75;5030310;28;20216;-54
2022/09/30 08:12:59;;;;;;;7.57;5.97;;;;;;;-142.64;100.00;58178.75;5029852;28;20461;-57
2022/09/30 08:15:24;;;;;;;8.38;6.13;;;;;;;14.79;nan;100738.91;5030974;28;20060;-57
2022/09/30 08:17:49;;;;;;;5.43;4.85;;;;;;;15.85;nan;100813.69;5029274;28;20064;-60
2022/09/30 08:20:14;;;;;;;4.80;4.28;;;;;;;16.30;nan;100776.63;5030519;28;20056;-56
2022/09/30 08:22:40;;;;;;;9.00;4.22;;;;;;;16.83;nan;100797.47;5030712;28;20041;-56
2022/09/30 08:25:05;;;;;;;5.80;3.88;;;;;;;16.61;nan;100789.03;5029611;28;20042;-57
2022/09/30 08:27:31;;;;;;;4.35;4.00;;;;;;;16.93;nan;100828.84;5030904;28;20037;-57
2022/09/30 08:29:56;;;;;;;3.67;3.38;;;;;;;17.28;nan;100835.56;5030777;28;20041;-59
2022/09/30 08:32:21;;;;;;;3.50;3.20;;;;;;;17.69;nan;100849.06;5030683;28;20045;-60
2022/09/30 08:34:47;;;;;;;4.13;3.40;;;;;;;18.13;nan;100852.47;5029349;28;20840;-58
2022/09/30 08:37:12;;;;;;;8.15;4.40;;;;;;;18.41;nan;100857.78;5030369;28;20052;-59
2022/09/30 08:39:37;;;;;;;3.95;3.33;;;;;;;18.86;nan;100861.91;5030813;28;20048;-55
2022/09/30 08:42:13;;;;;;;4.32;3.08;;;;;;;19.01;nan;100836.03;5030672;28;20304;-55
2022/09/30 08:44:45;;;;;;;3.22;2.63;;;;;;;19.76;nan;100870.00;5030714;28;20419;-56
2022/09/30 08:47:38;;;;;;;3.53;2.88;;;;;;;20.34;nan;100873.94;5032452;28;20116;-59
2022/09/30 08:50:13;;;;;;;2.13;1.92;;;;;;;20.39;nan;100880.66;5034450;28;20068;-56
2022/09/30 08:52:42;;;;;;;3.30;2.05;;;;;;;20.73;nan;100871.84;5032893;28;20048;-57
2022/09/30 08:55:15;;;;;;;2.10;1.98;;;;;;;21.43;nan;100871.06;5032453;28;20033;-51
2022/09/30 08:57:42;;;;;;;2.95;2.15;;;;;;;21.40;nan;100837.34;5032702;28;20057;-52
2022/09/30 09:00:21;;;;;;;2.05;1.85;;;;;;;21.57;nan;100838.75;5032902;28;20086;-60
2022/09/30 09:02:58;;;;;;;2.78;1.95;;;;;;;21.89;nan;100896.03;5034284;28;20025;-58
2022/09/30 09:05:30;;;;;;;9.38;1.88;;;;;;;21.65;nan;100849.69;5032881;28;20040;-59
2022/09/30 09:08:02;;;;;;;2.13;1.70;;;;;;;22.05;nan;100885.81;5033841;28;20041;-55
2022/09/30 09:10:38;;;;;;;2.72;1.60;;;;;;;22.09;nan;100846.22;5033295;28;20083;-57
2022/09/30 09:13:13;;;;;;;2.95;1.40;;;;;;;22.90;nan;100906.59;5032500;28;20120;-56
2022/09/30 09:15:38;;;;;;;2.95;1.63;;;;;;;-142.64;100.00;58178.75;5033685;28;20030;-58
2022/09/30 09:18:22;;;;;;;4.77;1.10;;;;;;;-142.64;100.00;62639.88;5033585;28;20148;-55
2022/09/30 09:20:55;;;;;;;2.00;1.23;;;;;;;-142.64;100.00;58178.75;5033723;28;20287;-53
2022/09/30 09:23:21;;;;;;;1.80;1.55;;;;;;;-142.64;100.00;58178.75;5034106;28;20473;-55
2022/09/30 09:25:49;;;;;;;2.83;1.48;;;;;;;-142.64;100.00;58178.75;5033703;28;20041;-57
2022/09/30 09:28:24;;;;;;;1.77;1.20;;;;;;;20.30;nan;100877.78;5016281;28;20038;-56
2022/09/30 09:30:55;;;;;;;3.17;1.20;;;;;;;19.86;nan;100820.31;5033660;28;20477;-56
2022/09/30 09:33:25;;;;;;;2.45;1.05;;;;;;;19.91;nan;100844.03;5032180;28;20536;-55
2022/09/30 09:36:22;;;;;;;1.42;0.77;;;;;;;20.49;nan;100889.69;5049019;28;20392;-54
2022/09/30 09:39:06;;;;;;;1.52;0.80;;;;;;;21.33;nan;100907.56;5029089;28;20045;-55
2022/09/30 09:41:47;;;;;;;1.55;1.10;;;;;;;22.10;nan;100896.16;5033391;28;20069;-52
2022/09/30 09:44:36;;;;;;;3.65;1.42;;;;;;;22.74;nan;100910.63;5033600;28;20065;-55
2022/09/30 09:47:16;;;;;;;0.70;0.70;;;;;;;22.23;nan;100904.94;5033864;28;20034;-58
2022/09/30 09:49:41;;;;;;;3.10;0.90;;;;;;;22.25;nan;100913.72;5033686;28;20034;-59
2022/09/30 09:52:12;;;;;;;1.80;1.07;;;;;;;21.85;nan;100889.19;5032908;28;20041;-57
2022/09/30 09:54:43;;;;;;;;;;;;;;;21.25;nan;100892.94;5033436;28;20346;-58
2022/09/30 09:57:11;;;;;;;1.25;0.68;;;;;;;20.27;nan;100838.75;5033105;28;19960;-58
2022/09/30 09:59:38;;;;;;;1.30;0.70;;;;;;;20.42;nan;100839.47;5032948;28;20033;-58
2022/09/30 10:02:21;;;;;;;3.25;0.90;;;;;;;21.29;nan;100893.56;5031786;28;20049;-57
2022/09/30 10:04:58;;;;;;;1.52;0.73;;;;;;;21.58;nan;100886.81;5031817;28;20041;-56
2022/09/30 10:07:24;;;;;;;2.75;0.68;;;;;;;21.35;nan;100895.75;5032885;28;20530;-56
2022/09/30 10:10:05;;;;;;;1.75;0.80;;;;;;;20.00;nan;100832.69;5031645;28;20045;-56
2022/09/30 10:12:31;;;;;;;1.40;0.35;;;;;;;19.57;nan;100894.47;5032846;28;20029;-58
2022/09/30 10:14:59;;;;;;;2.55;0.50;;;;;;;18.76;nan;100822.66;5031373;28;20107;-59
2022/09/30 10:17:31;;;;;;;0.40;0.28;;;;;;;18.45;nan;100832.59;5032745;28;20053;-55
2022/09/30 10:20:07;;;;;;;1.08;0.50;;;;;;;18.07;nan;100826.22;5032532;28;20042;-56
2022/09/30 10:22:34;;;;;;;0.52;0.50;;;;;;;17.96;nan;100818.91;5032094;28;20029;-50
2022/09/30 10:25:17;;;;;;;0.68;0.40;;;;;;;18.02;nan;100822.13;5032634;28;20037;-55
2022/09/30 10:28:02;;;;;;;0.65;0.32;;;;;;;18.36;nan;100880.31;5032455;28;20112;-58
2022/09/30 10:30:37;;;;;;;0.93;0.52;;;;;;;18.26;nan;100871.22;5031552;28;20039;-51
2022/09/30 10:33:11;;;;;;;1.13;0.70;;;;;;;18.37;nan;100858.91;5032311;28;20118;-55
2022/09/30 10:35:49;;;;;;;1.45;0.75;;;;;;;18.38;nan;100854.44;5030778;28;20164;-57
2022/09/30 10:38:14;;;;;;;3.03;0.90;;;;;;;18.37;nan;100850.91;5031230;28;20493;-59
2022/09/30 10:40:48;;;;;;;4.82;1.17;;;;;;;18.22;nan;100854.56;5030560;28;20033;-59
2022/09/30 10:43:23;;;;;;;1.10;1.00;;;;;;;18.62;nan;100857.38;5032235;28;20040;-56
2022/09/30 10:45:50;;;;;;;2.95;1.10;;;;;;;19.12;nan;100864.69;5032332;28;20534;-56
2022/09/30 10:48:18;;;;;;;1.38;0.88;;;;;;;19.54;nan;100873.31;5031474;28;20038;-56
2022/09/30 10:50:55;;;;;;;1.48;0.90;;;;;;;19.06;nan;100841.91;5030817;28;20033;-59
2022/09/30 10:53:24;;;;;;;2.03;0.70;;;;;;;18.56;nan;100847.97;5031734;28;20033;-57
2022/09/30 10:55:50;;;;;;;1.42;0.80;;;;;;;18.07;nan;100860.00;5032175;28;20037;-58
2022/09/30 10:58:28;;;;;;;2.05;1.00;;;;;;;17.68;nan;100860.66;5030561;28;20041;-55
2022/09/30 11:01:24;;;;;;;1.58;0.90;;;;;;;17.29;nan;100846.13;5032154;28;20029;-54
2022/09/30 11:04:10;;;;;;;2.85;1.30;;;;;;;16.77;nan;100799.63;5028254;28;20203;-53
2022/09/30 11:06:38;;;;;;;2.33;1.73;;;;;;;16.51;nan;100797.59;5017973;28;20049;-57
2022/09/30 11:09:13;;;;;;;3.30;1.50;;;;;;;16.46;nan;100803.16;5010149;28;20056;-56
2022/09/30 11:11:44;;;;;;;3.88;2.20;;;;;;;16.55;nan;100839.03;5010846;28;20028;-55
2022/09/30 11:14:36;;;;;;;3.15;2.08;;;;;;;16.42;nan;100835.31;5011813;28;20032;-55
2022/09/30 11:17:28;;;;;;;4.45;2.10;;;;;;;17.65;nan;100836.91;5010798;28;20077;-54
2022/09/30 11:20:04;;;;;;;2.30;2.03;;;;;;;18.89;nan;100836.84;5010135;28;20034;-56
2022/09/30 11:22:46;;;;;;;2.78;1.58;;;;;;;20.91;nan;100864.28;5026738;28;20397;-56
2022/09/30 11:25:14;;;;;;;1.95;1.50;;;;;;;21.71;nan;100859.94;5030901;28;20102;-59
2022/09/30 11:27:48;;;;;;;3.85;1.70;;;;;;;21.15;nan;100865.16;5029658;28;20327;-53
2022/09/30 11:30:29;;;;;;;2.60;2.08;;;;;;;20.35;nan;100863.09;5031376;28;20030;-53
2022/09/30 11:33:17;;;;;;;2.15;1.75;;;;;;;20.23;nan;100853.25;5029771;28;20091;-56
2022/09/30 11:35:54;;;;;;;2.50;1.95;;;;;;;20.21;nan;100839.16;5031521;28;20059;-57
2022/09/30 11:38:51;;;;;;;2.53;2.30;;;;;;;19.91;nan;100830.66;5029732;28;20057;-52
2022/09/30 11:41:27;;;;;;;2.42;1.88;;;;;;;19.97;nan;100844.44;5029871;28;20045;-55
2022/09/30 11:44:19;;;;;;;2.28;1.98;;;;;;;19.72;nan;100817.78;5030199;28;20033;-55
2022/09/30 11:46:54;;;;;;;3.38;2.13;;;;;;;19.10;nan;100835.41;5031223;28;20041;-58
2022/09/30 11:49:46;;;;;;;2.15;1.88;;;;;;;18.30;nan;100822.94;5029691;28;20030;-59
2022/09/30 11:52:29;;;;;;;4.28;2.33;;;;;;;17.62;nan;100814.00;5030883;28;20112;-57
2022/09/30 11:55:02;;;;;;;5.07;2.15;;;;;;;17.27;nan;100807.28;5031029;28;20036;-58
2022/09/30 11:57:49;;;;;;;5.68;2.22;;;;;;;16.72;nan;100757.34;5029488;28;20029;-58